sensor_id;sensor_type;location;lat;lon;timestamp;noise_LAeq;noise_LA_min;noise_LA_max;noise_LA01;noise_LA95
71030;Laerm;63723;51.436;5.976;2023-08-06T00:00:02;59.33;57.07;62.58;;
71030;Laerm;63723;51.436;5.976;2023-08-06T00:00:13;59.41;56.97;62.56;;
71030;Laerm;63723;51.436;5.976;2023-08-06T00:00:23;59.22;56.36;62.32;;
71030;Laerm;63723;51.436;5.976;2023-08-06T00:00:34;59.21;56.50;61.95;;
71030;Laerm;63723;51.436;5.976;2023-08-06T00:00:44;59.43;56.89;62.32;;
71030;Laerm;63723;51.436;5.976;2023-08-06T00:00:54;59.28;56.88;61.32;;
71030;Laerm;63723;51.436;5.976;2023-08-06T00:01:04;59.43;57.25;61.97;;
71030;Laerm;63723;51.436;5.976;2023-08-06T00:01:15;59.49;56.22;62.20;;
71030;Laerm;63723;51.436;5.976;2023-08-06T00:01:25;59.52;57.07;62.71;;
71030;Laerm;63723;51.436;5.976;2023-08-06T00:01:35;59.24;56.65;61.97;;
71030;Laerm;63723;51.436;5.976;2023-08-06T00:01:45;58.91;56.72;61.14;;
71030;Laerm;63723;51.436;5.976;2023-08-06T00:01:56;59.49;57.55;61.63;;
71030;Laerm;63723;51.436;5.976;2023-08-06T00:02:06;59.45;57.04;61.97;;
71030;Laerm;63723;51.436;5.976;2023-08-06T00:02:16;59.49;57.00;62.57;;
71030;Laerm;63723;51.436;5.976;2023-08-06T00:02:26;59.46;57.21;62.23;;
71030;Laerm;63723;51.436;5.976;2023-08-06T00:02:37;59.55;56.74;61.60;;
71030;Laerm;63723;51.436;5.976;2023-08-06T00:02:47;59.45;56.97;62.32;;
71030;Laerm;63723;51.436;5.976;2023-08-06T00:02:57;59.32;57.30;62.03;;
71030;Laerm;63723;51.436;5.976;2023-08-06T00:03:08;59.33;57.37;61.39;;
71030;Laerm;63723;51.436;5.976;2023-08-06T00:03:18;59.51;57.51;61.56;;
71030;Laerm;63723;51.436;5.976;2023-08-06T00:03:28;59.65;57.47;62.70;;
71030;Laerm;63723;51.436;5.976;2023-08-06T00:03:38;59.69;57.22;62.43;;
71030;Laerm;63723;51.436;5.976;2023-08-06T00:03:48;59.27;56.54;62.69;;
71030;Laerm;63723;51.436;5.976;2023-08-06T00:03:59;59.08;56.53;61.78;;
71030;Laerm;63723;51.436;5.976;2023-08-06T00:04:10;59.10;56.78;61.57;;
71030;Laerm;63723;51.436;5.976;2023-08-06T00:04:20;59.24;56.80;61.57;;
71030;Laerm;63723;51.436;5.976;2023-08-06T00:04:30;59.07;56.24;61.57;;
71030;Laerm;63723;51.436;5.976;2023-08-06T00:04:41;58.88;56.07;62.10;;
71030;Laerm;63723;51.436;5.976;2023-08-06T00:04:51;58.31;56.38;60.45;;
71030;Laerm;63723;51.436;5.976;2023-08-06T00:05:02;58.61;56.36;61.06;;
71030;Laerm;63723;51.436;5.976;2023-08-06T00:05:13;58.43;56.76;61.06;;
71030;Laerm;63723;51.436;5.976;2023-08-06T00:05:23;58.47;56.62;61.11;;
71030;Laerm;63723;51.436;5.976;2023-08-06T00:05:33;58.52;56.61;60.79;;
71030;Laerm;63723;51.436;5.976;2023-08-06T00:05:44;59.07;57.59;61.04;;
71030;Laerm;63723;51.436;5.976;2023-08-06T00:05:54;58.91;57.33;61.18;;
71030;Laerm;63723;51.436;5.976;2023-08-06T00:06:05;58.75;56.63;61.84;;
71030;Laerm;63723;51.436;5.976;2023-08-06T00:06:16;58.33;56.59;60.05;;
71030;Laerm;63723;51.436;5.976;2023-08-06T00:06:26;58.52;56.43;60.72;;
71030;Laerm;63723;51.436;5.976;2023-08-06T00:06:36;58.63;56.08;61.59;;
71030;Laerm;63723;51.436;5.976;2023-08-06T00:06:46;59.66;56.91;61.80;;
71030;Laerm;63723;51.436;5.976;2023-08-06T00:06:57;60.01;57.36;62.66;;
71030;Laerm;63723;51.436;5.976;2023-08-06T00:07:07;59.60;57.30;62.30;;
71030;Laerm;63723;51.436;5.976;2023-08-06T00:07:17;59.73;57.77;62.19;;
71030;Laerm;63723;51.436;5.976;2023-08-06T00:07:27;59.69;57.65;62.27;;
71030;Laerm;63723;51.436;5.976;2023-08-06T00:07:38;59.54;57.29;62.12;;
71030;Laerm;63723;51.436;5.976;2023-08-06T00:07:48;59.88;57.38;62.23;;
71030;Laerm;63723;51.436;5.976;2023-08-06T00:07:58;59.45;57.22;61.56;;
71030;Laerm;63723;51.436;5.976;2023-08-06T00:08:08;59.47;56.74;61.88;;
71030;Laerm;63723;51.436;5.976;2023-08-06T00:08:19;59.69;57.57;61.78;;
71030;Laerm;63723;51.436;5.976;2023-08-06T00:08:29;59.38;57.18;61.74;;
71030;Laerm;63723;51.436;5.976;2023-08-06T00:08:39;59.08;56.90;62.07;;
71030;Laerm;63723;51.436;5.976;2023-08-06T00:08:49;58.72;56.58;61.09;;
71030;Laerm;63723;51.436;5.976;2023-08-06T00:09:00;59.04;56.73;61.50;;
71030;Laerm;63723;51.436;5.976;2023-08-06T00:09:10;59.10;56.54;61.91;;
71030;Laerm;63723;51.436;5.976;2023-08-06T00:09:20;59.14;56.28;61.44;;
71030;Laerm;63723;51.436;5.976;2023-08-06T00:09:30;59.05;56.79;61.50;;
71030;Laerm;63723;51.436;5.976;2023-08-06T00:09:41;59.03;56.90;61.64;;
71030;Laerm;63723;51.436;5.976;2023-08-06T00:09:51;59.29;56.49;61.95;;
71030;Laerm;63723;51.436;5.976;2023-08-06T00:10:01;60.35;55.76;64.18;;
71030;Laerm;63723;51.436;5.976;2023-08-06T00:10:12;61.46;57.26;63.97;;
71030;Laerm;63723;51.436;5.976;2023-08-06T00:10:22;61.38;58.79;63.60;;
71030;Laerm;63723;51.436;5.976;2023-08-06T00:10:32;61.38;58.07;63.79;;
71030;Laerm;63723;51.436;5.976;2023-08-06T00:10:42;61.91;57.07;63.80;;
71030;Laerm;63723;51.436;5.976;2023-08-06T00:10:53;61.40;56.73;63.93;;
71030;Laerm;63723;51.436;5.976;2023-08-06T00:11:03;60.27;55.79;63.16;;
71030;Laerm;63723;51.436;5.976;2023-08-06T00:11:13;60.11;57.61;62.33;;
71030;Laerm;63723;51.436;5.976;2023-08-06T00:11:23;60.06;57.80;63.39;;
71030;Laerm;63723;51.436;5.976;2023-08-06T00:11:34;59.41;57.38;61.51;;
71030;Laerm;63723;51.436;5.976;2023-08-06T00:11:44;59.29;57.05;61.91;;
71030;Laerm;63723;51.436;5.976;2023-08-06T00:11:56;59.82;56.97;62.22;;
71030;Laerm;63723;51.436;5.976;2023-08-06T00:12:07;59.52;57.22;62.45;;
71030;Laerm;63723;51.436;5.976;2023-08-06T00:12:17;59.24;57.32;61.57;;
71030;Laerm;63723;51.436;5.976;2023-08-06T00:12:27;59.72;57.18;62.27;;
71030;Laerm;63723;51.436;5.976;2023-08-06T00:12:37;61.03;57.35;63.58;;
71030;Laerm;63723;51.436;5.976;2023-08-06T00:12:48;61.44;55.79;64.15;;
71030;Laerm;63723;51.436;5.976;2023-08-06T00:12:58;61.23;56.90;63.87;;
71030;Laerm;63723;51.436;5.976;2023-08-06T00:13:09;60.07;56.90;64.01;;
71030;Laerm;63723;51.436;5.976;2023-08-06T00:13:19;59.04;56.85;61.35;;
71030;Laerm;63723;51.436;5.976;2023-08-06T00:13:29;59.13;56.56;61.64;;
71030;Laerm;63723;51.436;5.976;2023-08-06T00:13:39;59.35;57.26;62.93;;
71030;Laerm;63723;51.436;5.976;2023-08-06T00:13:50;59.19;56.88;61.74;;
71030;Laerm;63723;51.436;5.976;2023-08-06T00:14:00;59.15;56.97;61.42;;
71030;Laerm;63723;51.436;5.976;2023-08-06T00:14:10;59.30;57.22;62.28;;
71030;Laerm;63723;51.436;5.976;2023-08-06T00:14:20;59.58;57.00;62.11;;
71030;Laerm;63723;51.436;5.976;2023-08-06T00:14:31;59.30;56.74;61.59;;
71030;Laerm;63723;51.436;5.976;2023-08-06T00:14:41;59.64;56.93;62.51;;
71030;Laerm;63723;51.436;5.976;2023-08-06T00:14:52;60.12;57.97;63.13;;
71030;Laerm;63723;51.436;5.976;2023-08-06T00:15:03;59.48;56.91;62.20;;
71030;Laerm;63723;51.436;5.976;2023-08-06T00:15:13;58.83;56.83;61.38;;
71030;Laerm;63723;51.436;5.976;2023-08-06T00:15:24;59.11;57.04;61.47;;
71030;Laerm;63723;51.436;5.976;2023-08-06T00:15:34;58.95;56.80;61.22;;
71030;Laerm;63723;51.436;5.976;2023-08-06T00:15:44;58.97;56.93;61.87;;
71030;Laerm;63723;51.436;5.976;2023-08-06T00:15:55;59.61;57.11;62.10;;
71030;Laerm;63723;51.436;5.976;2023-08-06T00:16:11;59.60;57.08;61.79;;
71030;Laerm;63723;51.436;5.976;2023-08-06T00:16:22;59.67;57.40;63.09;;
71030;Laerm;63723;51.436;5.976;2023-08-06T00:16:32;58.78;56.77;61.03;;
71030;Laerm;63723;51.436;5.976;2023-08-06T00:16:43;58.72;56.35;61.36;;
71030;Laerm;63723;51.436;5.976;2023-08-06T00:16:53;58.86;56.58;61.22;;
71030;Laerm;63723;51.436;5.976;2023-08-06T00:17:03;59.72;56.98;62.89;;
71030;Laerm;63723;51.436;5.976;2023-08-06T00:17:14;58.90;56.76;61.66;;
71030;Laerm;63723;51.436;5.976;2023-08-06T00:17:25;61.01;55.29;63.30;;
71030;Laerm;63723;51.436;5.976;2023-08-06T00:17:35;61.00;57.35;63.16;;
71030;Laerm;63723;51.436;5.976;2023-08-06T00:17:45;61.06;54.70;63.43;;
71030;Laerm;63723;51.436;5.976;2023-08-06T00:17:55;60.84;55.25;63.28;;
71030;Laerm;63723;51.436;5.976;2023-08-06T00:18:06;58.36;56.07;60.42;;
71030;Laerm;63723;51.436;5.976;2023-08-06T00:18:16;58.12;56.12;60.07;;
71030;Laerm;63723;51.436;5.976;2023-08-06T00:18:26;58.21;56.21;61.07;;
71030;Laerm;63723;51.436;5.976;2023-08-06T00:18:37;58.27;56.12;61.31;;
71030;Laerm;63723;51.436;5.976;2023-08-06T00:18:47;58.12;55.97;60.99;;
71030;Laerm;63723;51.436;5.976;2023-08-06T00:18:57;57.99;55.58;60.42;;
71030;Laerm;63723;51.436;5.976;2023-08-06T00:19:08;58.03;55.53;60.28;;
71030;Laerm;63723;51.436;5.976;2023-08-06T00:19:18;57.93;55.40;60.85;;
71030;Laerm;63723;51.436;5.976;2023-08-06T00:19:28;58.18;55.92;61.58;;
71030;Laerm;63723;51.436;5.976;2023-08-06T00:19:38;58.73;56.55;61.77;;
71030;Laerm;63723;51.436;5.976;2023-08-06T00:19:49;59.22;56.97;61.61;;
71030;Laerm;63723;51.436;5.976;2023-08-06T00:19:59;58.75;56.70;61.38;;
71030;Laerm;63723;51.436;5.976;2023-08-06T00:20:14;58.59;56.21;61.38;;
71030;Laerm;63723;51.436;5.976;2023-08-06T00:20:24;58.53;56.35;61.41;;
71030;Laerm;63723;51.436;5.976;2023-08-06T00:20:34;58.90;56.96;61.42;;
71030;Laerm;63723;51.436;5.976;2023-08-06T00:20:45;58.69;56.97;61.15;;
71030;Laerm;63723;51.436;5.976;2023-08-06T00:20:55;60.30;56.88;63.84;;
71030;Laerm;63723;51.436;5.976;2023-08-06T00:21:05;60.42;56.86;64.28;;
71030;Laerm;63723;51.436;5.976;2023-08-06T00:21:15;59.12;57.07;62.23;;
71030;Laerm;63723;51.436;5.976;2023-08-06T00:21:26;59.14;57.16;61.39;;
71030;Laerm;63723;51.436;5.976;2023-08-06T00:21:36;59.02;56.78;61.30;;
71030;Laerm;63723;51.436;5.976;2023-08-06T00:21:46;59.12;56.01;61.53;;
71030;Laerm;63723;51.436;5.976;2023-08-06T00:21:56;58.49;56.49;61.01;;
71030;Laerm;63723;51.436;5.976;2023-08-06T00:22:07;58.19;56.17;60.75;;
71030;Laerm;63723;51.436;5.976;2023-08-06T00:22:17;58.27;55.91;61.41;;
71030;Laerm;63723;51.436;5.976;2023-08-06T00:22:27;58.18;55.84;61.03;;
71030;Laerm;63723;51.436;5.976;2023-08-06T00:22:38;58.17;55.78;60.49;;
71030;Laerm;63723;51.436;5.976;2023-08-06T00:22:48;57.86;55.52;61.18;;
71030;Laerm;63723;51.436;5.976;2023-08-06T00:22:58;57.91;55.48;60.47;;
71030;Laerm;63723;51.436;5.976;2023-08-06T00:23:09;57.84;55.55;61.45;;
71030;Laerm;63723;51.436;5.976;2023-08-06T00:23:19;57.97;55.79;60.54;;
71030;Laerm;63723;51.436;5.976;2023-08-06T00:23:31;57.88;55.51;60.26;;
71030;Laerm;63723;51.436;5.976;2023-08-06T00:23:42;57.79;55.54;59.99;;
71030;Laerm;63723;51.436;5.976;2023-08-06T00:23:52;57.75;55.18;60.68;;
71030;Laerm;63723;51.436;5.976;2023-08-06T00:24:02;58.20;55.67;60.81;;
71030;Laerm;63723;51.436;5.976;2023-08-06T00:24:12;58.41;56.11;60.80;;
71030;Laerm;63723;51.436;5.976;2023-08-06T00:24:23;58.30;55.76;61.43;;
71030;Laerm;63723;51.436;5.976;2023-08-06T00:24:34;58.98;56.72;61.53;;
71030;Laerm;63723;51.436;5.976;2023-08-06T00:24:44;58.28;55.84;60.91;;
71030;Laerm;63723;51.436;5.976;2023-08-06T00:24:55;58.15;55.83;61.09;;
71030;Laerm;63723;51.436;5.976;2023-08-06T00:25:07;57.83;55.25;60.69;;
71030;Laerm;63723;51.436;5.976;2023-08-06T00:25:18;57.71;55.29;60.45;;
71030;Laerm;63723;51.436;5.976;2023-08-06T00:25:28;57.79;55.73;60.22;;
71030;Laerm;63723;51.436;5.976;2023-08-06T00:25:38;57.58;55.04;60.34;;
71030;Laerm;63723;51.436;5.976;2023-08-06T00:25:48;58.02;55.94;60.34;;
71030;Laerm;63723;51.436;5.976;2023-08-06T00:25:59;58.34;56.15;60.77;;
71030;Laerm;63723;51.436;5.976;2023-08-06T00:26:09;58.12;55.96;60.99;;
71030;Laerm;63723;51.436;5.976;2023-08-06T00:26:19;58.24;55.63;60.63;;
71030;Laerm;63723;51.436;5.976;2023-08-06T00:26:30;58.34;55.48;61.74;;
71030;Laerm;63723;51.436;5.976;2023-08-06T00:26:40;58.16;55.78;61.30;;
71030;Laerm;63723;51.436;5.976;2023-08-06T00:26:50;58.23;55.34;60.72;;
71030;Laerm;63723;51.436;5.976;2023-08-06T00:27:00;58.03;55.34;60.63;;
71030;Laerm;63723;51.436;5.976;2023-08-06T00:27:11;58.03;55.93;60.87;;
71030;Laerm;63723;51.436;5.976;2023-08-06T00:27:21;57.91;55.66;60.56;;
71030;Laerm;63723;51.436;5.976;2023-08-06T00:27:31;57.67;55.52;60.53;;
71030;Laerm;63723;51.436;5.976;2023-08-06T00:27:42;58.53;55.88;61.83;;
71030;Laerm;63723;51.436;5.976;2023-08-06T00:27:52;58.60;55.99;61.61;;
71030;Laerm;63723;51.436;5.976;2023-08-06T00:28:03;58.50;55.91;61.47;;
71030;Laerm;63723;51.436;5.976;2023-08-06T00:28:13;58.62;56.23;61.38;;
71030;Laerm;63723;51.436;5.976;2023-08-06T00:28:23;58.41;55.56;60.84;;
71030;Laerm;63723;51.436;5.976;2023-08-06T00:28:34;58.23;55.86;60.67;;
71030;Laerm;63723;51.436;5.976;2023-08-06T00:28:44;58.68;56.22;60.90;;
71030;Laerm;63723;51.436;5.976;2023-08-06T00:28:54;58.42;56.14;60.65;;
71030;Laerm;63723;51.436;5.976;2023-08-06T00:29:04;58.41;56.65;60.49;;
71030;Laerm;63723;51.436;5.976;2023-08-06T00:29:15;58.44;56.23;61.10;;
71030;Laerm;63723;51.436;5.976;2023-08-06T00:29:25;58.75;56.16;62.04;;
71030;Laerm;63723;51.436;5.976;2023-08-06T00:29:35;58.64;56.30;61.02;;
71030;Laerm;63723;51.436;5.976;2023-08-06T00:29:45;58.36;55.37;60.81;;
71030;Laerm;63723;51.436;5.976;2023-08-06T00:29:56;58.31;55.24;60.86;;
71030;Laerm;63723;51.436;5.976;2023-08-06T00:30:06;57.89;54.78;61.16;;
71030;Laerm;63723;51.436;5.976;2023-08-06T00:30:16;58.10;55.50;60.59;;
71030;Laerm;63723;51.436;5.976;2023-08-06T00:30:27;58.45;55.17;61.29;;
71030;Laerm;63723;51.436;5.976;2023-08-06T00:30:37;59.18;55.84;61.46;;
71030;Laerm;63723;51.436;5.976;2023-08-06T00:30:54;59.38;56.66;62.07;;
71030;Laerm;63723;51.436;5.976;2023-08-06T00:31:04;59.25;56.48;61.88;;
71030;Laerm;63723;51.436;5.976;2023-08-06T00:31:14;58.58;55.40;61.28;;
71030;Laerm;63723;51.436;5.976;2023-08-06T00:31:25;58.11;55.15;60.63;;
71030;Laerm;63723;51.436;5.976;2023-08-06T00:31:35;58.22;55.55;61.44;;
71030;Laerm;63723;51.436;5.976;2023-08-06T00:31:45;58.22;55.31;60.81;;
71030;Laerm;63723;51.436;5.976;2023-08-06T00:31:55;58.94;55.81;61.93;;
71030;Laerm;63723;51.436;5.976;2023-08-06T00:32:05;58.42;55.41;61.25;;
71030;Laerm;63723;51.436;5.976;2023-08-06T00:32:16;58.51;55.93;61.21;;
71030;Laerm;63723;51.436;5.976;2023-08-06T00:32:26;58.31;55.69;61.15;;
71030;Laerm;63723;51.436;5.976;2023-08-06T00:32:36;58.13;55.55;61.21;;
71030;Laerm;63723;51.436;5.976;2023-08-06T00:32:46;58.43;54.71;61.19;;
71030;Laerm;63723;51.436;5.976;2023-08-06T00:32:57;58.75;54.99;61.49;;
71030;Laerm;63723;51.436;5.976;2023-08-06T00:33:07;58.51;55.57;60.89;;
71030;Laerm;63723;51.436;5.976;2023-08-06T00:33:17;58.22;55.31;61.33;;
71030;Laerm;63723;51.436;5.976;2023-08-06T00:33:28;58.59;55.48;61.41;;
71030;Laerm;63723;51.436;5.976;2023-08-06T00:33:38;58.77;56.22;61.92;;
71030;Laerm;63723;51.436;5.976;2023-08-06T00:33:48;58.85;55.63;61.31;;
71030;Laerm;63723;51.436;5.976;2023-08-06T00:33:58;58.68;56.03;61.72;;
71030;Laerm;63723;51.436;5.976;2023-08-06T00:34:09;58.84;55.40;61.44;;
71030;Laerm;63723;51.436;5.976;2023-08-06T00:34:19;58.81;56.52;61.08;;
71030;Laerm;63723;51.436;5.976;2023-08-06T00:34:29;58.92;56.24;62.45;;
71030;Laerm;63723;51.436;5.976;2023-08-06T00:34:39;58.70;56.17;62.01;;
71030;Laerm;63723;51.436;5.976;2023-08-06T00:34:50;58.77;55.80;61.84;;
71030;Laerm;63723;51.436;5.976;2023-08-06T00:35:00;58.90;56.39;61.71;;
71030;Laerm;63723;51.436;5.976;2023-08-06T00:35:13;58.79;56.30;61.60;;
71030;Laerm;63723;51.436;5.976;2023-08-06T00:35:29;58.59;55.85;61.46;;
71030;Laerm;63723;51.436;5.976;2023-08-06T00:35:39;58.46;55.55;61.32;;
71030;Laerm;63723;51.436;5.976;2023-08-06T00:35:50;58.42;55.79;60.80;;
71030;Laerm;63723;51.436;5.976;2023-08-06T00:36:00;58.48;55.93;61.50;;
71030;Laerm;63723;51.436;5.976;2023-08-06T00:36:10;58.87;56.59;61.36;;
71030;Laerm;63723;51.436;5.976;2023-08-06T00:36:20;58.93;56.76;61.53;;
71030;Laerm;63723;51.436;5.976;2023-08-06T00:36:31;58.87;56.35;62.10;;
71030;Laerm;63723;51.436;5.976;2023-08-06T00:36:41;58.86;56.63;61.09;;
71030;Laerm;63723;51.436;5.976;2023-08-06T00:36:51;59.11;56.23;61.57;;
71030;Laerm;63723;51.436;5.976;2023-08-06T00:37:03;58.94;56.12;61.74;;
71030;Laerm;63723;51.436;5.976;2023-08-06T00:37:13;58.60;55.92;61.29;;
71030;Laerm;63723;51.436;5.976;2023-08-06T00:37:24;58.81;55.96;61.76;;
71030;Laerm;63723;51.436;5.976;2023-08-06T00:37:34;60.07;57.49;62.21;;
71030;Laerm;63723;51.436;5.976;2023-08-06T00:37:44;60.16;57.42;63.57;;
71030;Laerm;63723;51.436;5.976;2023-08-06T00:37:55;60.06;57.12;62.53;;
71030;Laerm;63723;51.436;5.976;2023-08-06T00:38:05;60.08;57.23;62.25;;
71030;Laerm;63723;51.436;5.976;2023-08-06T00:38:15;59.72;56.79;62.24;;
71030;Laerm;63723;51.436;5.976;2023-08-06T00:38:25;59.30;56.89;62.37;;
71030;Laerm;63723;51.436;5.976;2023-08-06T00:38:36;59.39;56.74;62.27;;
71030;Laerm;63723;51.436;5.976;2023-08-06T00:38:46;59.43;56.34;61.93;;
71030;Laerm;63723;51.436;5.976;2023-08-06T00:38:56;59.00;56.22;61.19;;
71030;Laerm;63723;51.436;5.976;2023-08-06T00:39:06;59.38;56.62;61.99;;
71030;Laerm;63723;51.436;5.976;2023-08-06T00:39:17;59.38;56.69;61.99;;
71030;Laerm;63723;51.436;5.976;2023-08-06T00:39:27;59.21;56.66;61.89;;
71030;Laerm;63723;51.436;5.976;2023-08-06T00:39:37;59.11;56.87;61.61;;
71030;Laerm;63723;51.436;5.976;2023-08-06T00:39:48;59.78;57.19;63.34;;
71030;Laerm;63723;51.436;5.976;2023-08-06T00:39:58;60.11;57.24;63.03;;
71030;Laerm;63723;51.436;5.976;2023-08-06T00:40:08;59.32;56.71;61.62;;
71030;Laerm;63723;51.436;5.976;2023-08-06T00:40:20;59.56;57.01;62.36;;
71030;Laerm;63723;51.436;5.976;2023-08-06T00:40:30;59.18;56.43;61.41;;
71030;Laerm;63723;51.436;5.976;2023-08-06T00:40:40;59.13;56.32;62.04;;
71030;Laerm;63723;51.436;5.976;2023-08-06T00:40:50;58.46;56.28;61.45;;
71030;Laerm;63723;51.436;5.976;2023-08-06T00:41:01;58.74;56.50;61.09;;
71030;Laerm;63723;51.436;5.976;2023-08-06T00:41:11;59.15;56.43;62.11;;
71030;Laerm;63723;51.436;5.976;2023-08-06T00:41:21;59.79;57.17;63.00;;
71030;Laerm;63723;51.436;5.976;2023-08-06T00:41:32;59.13;56.80;61.75;;
71030;Laerm;63723;51.436;5.976;2023-08-06T00:41:42;59.30;56.61;62.84;;
71030;Laerm;63723;51.436;5.976;2023-08-06T00:41:52;59.29;56.79;61.92;;
71030;Laerm;63723;51.436;5.976;2023-08-06T00:42:02;59.93;57.02;62.43;;
71030;Laerm;63723;51.436;5.976;2023-08-06T00:42:13;59.23;56.27;61.81;;
71030;Laerm;63723;51.436;5.976;2023-08-06T00:42:23;59.09;56.45;61.28;;
71030;Laerm;63723;51.436;5.976;2023-08-06T00:42:33;59.52;56.78;62.06;;
71030;Laerm;63723;51.436;5.976;2023-08-06T00:42:44;60.49;57.29;63.28;;
71030;Laerm;63723;51.436;5.976;2023-08-06T00:42:56;60.04;56.45;63.06;;
71030;Laerm;63723;51.436;5.976;2023-08-06T00:43:06;59.05;56.55;61.82;;
71030;Laerm;63723;51.436;5.976;2023-08-06T00:43:16;59.18;56.82;61.75;;
71030;Laerm;63723;51.436;5.976;2023-08-06T00:43:27;58.95;56.79;61.34;;
71030;Laerm;63723;51.436;5.976;2023-08-06T00:43:37;59.35;56.94;62.05;;
71030;Laerm;63723;51.436;5.976;2023-08-06T00:43:47;58.61;55.89;61.05;;
71030;Laerm;63723;51.436;5.976;2023-08-06T00:43:58;58.52;55.54;61.52;;
71030;Laerm;63723;51.436;5.976;2023-08-06T00:44:08;58.32;55.59;60.88;;
71030;Laerm;63723;51.436;5.976;2023-08-06T00:44:18;58.25;55.49;60.54;;
71030;Laerm;63723;51.436;5.976;2023-08-06T00:44:28;58.69;56.23;61.41;;
71030;Laerm;63723;51.436;5.976;2023-08-06T00:44:39;58.43;55.48;61.02;;
71030;Laerm;63723;51.436;5.976;2023-08-06T00:44:49;57.97;54.85;60.47;;
71030;Laerm;63723;51.436;5.976;2023-08-06T00:45:00;57.96;55.14;61.01;;
71030;Laerm;63723;51.436;5.976;2023-08-06T00:45:10;58.34;55.88;61.11;;
71030;Laerm;63723;51.436;5.976;2023-08-06T00:45:20;58.02;55.50;60.45;;
71030;Laerm;63723;51.436;5.976;2023-08-06T00:45:33;58.07;55.58;60.89;;
71030;Laerm;63723;51.436;5.976;2023-08-06T00:45:44;58.26;55.38;60.96;;
71030;Laerm;63723;51.436;5.976;2023-08-06T00:45:54;58.29;55.95;60.76;;
71030;Laerm;63723;51.436;5.976;2023-08-06T00:46:05;57.96;55.47;60.01;;
71030;Laerm;63723;51.436;5.976;2023-08-06T00:46:16;58.10;55.94;60.29;;
71030;Laerm;63723;51.436;5.976;2023-08-06T00:46:27;57.94;55.19;60.34;;
71030;Laerm;63723;51.436;5.976;2023-08-06T00:46:38;57.93;55.21;60.58;;
71030;Laerm;63723;51.436;5.976;2023-08-06T00:46:48;58.06;55.85;60.42;;
71030;Laerm;63723;51.436;5.976;2023-08-06T00:46:58;58.23;55.81;60.81;;
71030;Laerm;63723;51.436;5.976;2023-08-06T00:47:09;58.22;55.68;61.52;;
71030;Laerm;63723;51.436;5.976;2023-08-06T00:47:19;58.60;55.43;61.05;;
71030;Laerm;63723;51.436;5.976;2023-08-06T00:47:29;58.25;54.75;61.34;;
71030;Laerm;63723;51.436;5.976;2023-08-06T00:47:41;58.44;55.27;62.05;;
71030;Laerm;63723;51.436;5.976;2023-08-06T00:47:51;58.44;55.65;61.25;;
71030;Laerm;63723;51.436;5.976;2023-08-06T00:48:03;58.42;56.09;61.23;;
71030;Laerm;63723;51.436;5.976;2023-08-06T00:48:14;58.19;55.83;60.99;;
71030;Laerm;63723;51.436;5.976;2023-08-06T00:48:24;58.29;54.98;60.33;;
71030;Laerm;63723;51.436;5.976;2023-08-06T00:48:34;58.55;55.90;61.55;;
71030;Laerm;63723;51.436;5.976;2023-08-06T00:48:45;59.18;56.43;62.75;;
71030;Laerm;63723;51.436;5.976;2023-08-06T00:48:55;59.60;56.21;62.95;;
71030;Laerm;63723;51.436;5.976;2023-08-06T00:49:06;59.99;56.62;62.92;;
71030;Laerm;63723;51.436;5.976;2023-08-06T00:49:16;59.98;56.88;63.37;;
71030;Laerm;63723;51.436;5.976;2023-08-06T00:49:27;59.73;56.92;62.49;;
71030;Laerm;63723;51.436;5.976;2023-08-06T00:49:37;59.99;57.36;63.00;;
71030;Laerm;63723;51.436;5.976;2023-08-06T00:49:48;59.82;56.93;62.40;;
71030;Laerm;63723;51.436;5.976;2023-08-06T00:49:58;60.16;57.37;63.11;;
71030;Laerm;63723;51.436;5.976;2023-08-06T00:50:09;59.85;57.31;62.32;;
71030;Laerm;63723;51.436;5.976;2023-08-06T00:50:19;60.16;57.41;62.44;;
71030;Laerm;63723;51.436;5.976;2023-08-06T00:50:31;60.26;57.41;63.13;;
71030;Laerm;63723;51.436;5.976;2023-08-06T00:50:41;59.91;56.75;62.56;;
71030;Laerm;63723;51.436;5.976;2023-08-06T00:50:52;60.11;57.48;62.38;;
71030;Laerm;63723;51.436;5.976;2023-08-06T00:51:02;60.30;57.45;62.80;;
71030;Laerm;63723;51.436;5.976;2023-08-06T00:51:12;60.31;57.70;62.29;;
71030;Laerm;63723;51.436;5.976;2023-08-06T00:51:23;59.86;57.17;62.65;;
71030;Laerm;63723;51.436;5.976;2023-08-06T00:51:34;59.76;56.86;62.36;;
71030;Laerm;63723;51.436;5.976;2023-08-06T00:51:44;59.62;56.93;62.21;;
71030;Laerm;63723;51.436;5.976;2023-08-06T00:51:55;59.69;56.95;62.29;;
71030;Laerm;63723;51.436;5.976;2023-08-06T00:52:06;59.10;55.97;62.12;;
71030;Laerm;63723;51.436;5.976;2023-08-06T00:52:16;59.17;56.50;61.51;;
71030;Laerm;63723;51.436;5.976;2023-08-06T00:52:27;59.49;55.91;63.17;;
71030;Laerm;63723;51.436;5.976;2023-08-06T00:52:37;59.68;57.39;61.90;;
71030;Laerm;63723;51.436;5.976;2023-08-06T00:52:48;59.60;57.06;62.00;;
71030;Laerm;63723;51.436;5.976;2023-08-06T00:52:58;59.47;57.08;62.13;;
71030;Laerm;63723;51.436;5.976;2023-08-06T00:53:09;59.88;56.97;62.26;;
71030;Laerm;63723;51.436;5.976;2023-08-06T00:53:19;59.84;57.18;62.81;;
71030;Laerm;63723;51.436;5.976;2023-08-06T00:53:30;59.70;56.65;63.14;;
71030;Laerm;63723;51.436;5.976;2023-08-06T00:53:40;59.85;56.82;62.28;;
71030;Laerm;63723;51.436;5.976;2023-08-06T00:53:50;59.70;56.99;62.92;;
71030;Laerm;63723;51.436;5.976;2023-08-06T00:54:02;59.74;56.73;62.33;;
71030;Laerm;63723;51.436;5.976;2023-08-06T00:54:12;59.54;55.87;62.43;;
71030;Laerm;63723;51.436;5.976;2023-08-06T00:54:23;59.61;56.47;62.16;;
71030;Laerm;63723;51.436;5.976;2023-08-06T00:54:35;59.56;56.98;62.30;;
71030;Laerm;63723;51.436;5.976;2023-08-06T00:54:45;59.68;56.14;62.31;;
71030;Laerm;63723;51.436;5.976;2023-08-06T00:54:56;59.69;56.67;62.72;;
71030;Laerm;63723;51.436;5.976;2023-08-06T00:55:06;59.63;56.59;62.69;;
71030;Laerm;63723;51.436;5.976;2023-08-06T00:55:17;59.49;56.57;61.81;;
71030;Laerm;63723;51.436;5.976;2023-08-06T00:55:27;59.43;56.51;62.64;;
71030;Laerm;63723;51.436;5.976;2023-08-06T00:55:38;59.36;56.51;62.42;;
71030;Laerm;63723;51.436;5.976;2023-08-06T00:55:48;59.50;56.90;62.16;;
71030;Laerm;63723;51.436;5.976;2023-08-06T00:55:58;59.63;56.97;62.04;;
71030;Laerm;63723;51.436;5.976;2023-08-06T00:56:09;59.66;56.73;62.34;;
71030;Laerm;63723;51.436;5.976;2023-08-06T00:56:19;59.53;56.72;62.19;;
71030;Laerm;63723;51.436;5.976;2023-08-06T00:56:30;59.49;55.95;62.19;;
71030;Laerm;63723;51.436;5.976;2023-08-06T00:56:40;59.52;56.38;62.04;;
71030;Laerm;63723;51.436;5.976;2023-08-06T00:56:51;59.43;56.28;62.00;;
71030;Laerm;63723;51.436;5.976;2023-08-06T00:57:01;59.44;56.38;62.71;;
71030;Laerm;63723;51.436;5.976;2023-08-06T00:57:12;59.56;56.69;62.31;;
71030;Laerm;63723;51.436;5.976;2023-08-06T00:57:23;59.41;56.34;61.95;;
71030;Laerm;63723;51.436;5.976;2023-08-06T00:57:34;59.50;56.18;62.24;;
71030;Laerm;63723;51.436;5.976;2023-08-06T00:57:45;59.53;56.01;62.12;;
71030;Laerm;63723;51.436;5.976;2023-08-06T00:57:55;58.85;56.12;62.29;;
71030;Laerm;63723;51.436;5.976;2023-08-06T00:58:08;59.87;56.86;62.79;;
71030;Laerm;63723;51.436;5.976;2023-08-06T00:58:18;60.00;57.33;63.73;;
71030;Laerm;63723;51.436;5.976;2023-08-06T00:58:29;60.10;56.39;63.72;;
71030;Laerm;63723;51.436;5.976;2023-08-06T00:58:39;60.05;57.13;62.58;;